Time,TemperatureF,DewpointF,PressureIn,WindDirection,WindDirectionDegrees,WindSpeedMPH,WindSpeedGustMPH,Humidity,HourlyPrecipIn,Conditions,Clouds,dailyrainin,SolarRadiationWatts/m^2,SoftwareType,DateUTC
2013-06-20 00:01:00,50.0,48.0,-100.00,SE,145,0.0,2.0,94,0.00,,,0.00,0.000000,,2013-06-20 07:01:00,
2013-06-20 00:12:00,50.0,48.0,-100.00,SE,145,0.0,2.0,94,0.00,,,0.00,0.000000,,2013-06-20 07:12:00,
2013-06-20 00:22:00,50.0,48.0,-100.00,SE,145,0.0,2.0,94,0.00,,,0.00,0.000000,,2013-06-20 07:22:00,
2013-06-20 00:33:00,52.0,50.0,-100.00,East,89,0.0,2.0,94,0.00,,,0.00,0.000000,,2013-06-20 07:33:00,
2013-06-20 01:02:00,52.0,50.0,-100.00,East,89,0.0,2.0,94,0.00,,,0.00,0.000000,,2013-06-20 08:02:00,
2013-06-20 01:11:00,52.0,50.0,-100.00,East,89,0.0,2.0,94,0.00,,,0.00,0.000000,,2013-06-20 08:11:00,
2013-06-20 01:22:00,52.0,50.0,-100.00,East,89,0.0,2.0,94,0.00,,,0.00,0.000000,,2013-06-20 08:22:00,
2013-06-20 01:33:00,52.0,50.0,-100.00,SSE,161,0.0,2.0,92,0.00,,,0.00,0.000000,,2013-06-20 08:33:00,
2013-06-20 01:53:00,52.0,50.0,-100.00,SSE,161,0.0,2.0,92,0.00,,,0.00,0.000000,,2013-06-20 08:53:00,
2013-06-20 02:01:00,52.0,50.0,-100.00,SSE,161,0.0,2.0,92,0.00,,,0.00,0.000000,,2013-06-20 09:01:00,
2013-06-20 02:11:00,52.0,50.0,-100.00,SSE,161,0.0,2.0,92,0.00,,,0.00,0.000000,,2013-06-20 09:11:00,
2013-06-20 02:22:00,52.0,50.0,-100.00,SSE,161,0.0,2.0,92,0.00,,,0.00,0.000000,,2013-06-20 09:22:00,
2013-06-20 02:33:00,52.0,51.0,-100.00,North,359,0.0,1.0,95,0.00,,,0.00,0.000000,,2013-06-20 09:33:00,
2013-06-20 02:52:00,52.0,51.0,-100.00,North,359,0.0,1.0,95,0.00,,,0.00,0.000000,,2013-06-20 09:52:00,
2013-06-20 03:01:00,52.0,51.0,-100.00,North,359,0.0,1.0,95,0.00,,,0.00,0.000000,,2013-06-20 10:01:00,
2013-06-20 03:11:00,52.0,51.0,-100.00,North,359,0.0,1.0,95,0.00,,,0.00,0.000000,,2013-06-20 10:11:00,
2013-06-20 03:22:00,52.0,51.0,-100.00,North,359,0.0,1.0,95,0.00,,,0.00,0.000000,,2013-06-20 10:22:00,
2013-06-20 03:33:00,53.0,51.0,-100.00,SSW,196,0.0,2.0,94,0.00,,,0.00,0.000000,,2013-06-20 10:33:00,
2013-06-20 03:53:00,53.0,51.0,-100.00,SSW,196,0.0,2.0,94,0.00,,,0.00,0.000000,,2013-06-20 10:53:00,
2013-06-20 04:02:00,53.0,51.0,-100.00,SSW,196,0.0,2.0,94,0.00,,,0.00,0.000000,,2013-06-20 11:02:00,
2013-06-20 04:11:00,53.0,51.0,-100.00,SSW,196,0.0,2.0,94,0.00,,,0.00,0.000000,,2013-06-20 11:11:00,
2013-06-20 04:22:00,53.0,51.0,-100.00,SSW,196,0.0,2.0,94,0.00,,,0.00,0.000000,,2013-06-20 11:22:00,
2013-06-20 04:33:00,52.0,50.0,-100.00,West,262,0.0,4.0,94,0.00,,,0.00,0.000000,,2013-06-20 11:33:00,
2013-06-20 04:53:00,52.0,50.0,-100.00,West,262,0.0,4.0,94,0.00,,,0.00,0.000000,,2013-06-20 11:53:00,
2013-06-20 05:02:00,52.0,50.0,-100.00,West,262,0.0,4.0,94,0.00,,,0.00,0.000000,,2013-06-20 12:02:00,
2013-06-20 05:11:00,52.0,50.0,-100.00,West,262,0.0,4.0,94,0.00,,,0.00,0.000000,,2013-06-20 12:11:00,
2013-06-20 05:22:00,52.0,50.0,-100.00,West,262,0.0,4.0,94,0.00,,,0.00,0.000000,,2013-06-20 12:22:00,
2013-06-20 05:33:00,52.0,50.0,-100.00,SSE,163,1.0,2.0,93,0.00,,,0.00,1.000000,,2013-06-20 12:33:00,
2013-06-20 06:02:00,52.0,50.0,-100.00,SSE,163,1.0,2.0,93,0.00,,,0.00,1.000000,,2013-06-20 13:02:00,
2013-06-20 06:11:00,52.0,50.0,-100.00,SSE,163,1.0,2.0,93,0.00,,,0.00,1.000000,,2013-06-20 13:11:00,
2013-06-20 06:22:00,52.0,50.0,-100.00,SSE,163,1.0,2.0,93,0.00,,,0.00,1.000000,,2013-06-20 13:22:00,
2013-06-20 07:01:00,53.0,51.0,-100.00,WSW,238,0.0,2.0,92,0.00,,,-99.99,8.000000,,2013-06-20 14:01:00,
2013-06-20 07:11:00,53.0,51.0,-100.00,WSW,238,0.0,2.0,92,0.00,,,-99.99,8.000000,,2013-06-20 14:11:00,
2013-06-20 07:22:00,53.0,51.0,-100.00,WSW,238,0.0,2.0,92,0.00,,,-99.99,8.000000,,2013-06-20 14:22:00,
2013-06-20 07:32:00,53.0,51.0,-100.00,WSW,238,0.0,2.0,92,0.00,,,-99.99,8.000000,,2013-06-20 14:32:00,
2013-06-20 07:33:00,53.0,51.0,-100.00,West,280,0.0,2.0,92,0.00,,,0.00,18.000000,,2013-06-20 14:33:00,
2013-06-20 08:01:00,53.0,51.0,-100.00,West,280,0.0,2.0,92,0.00,,,0.00,18.000000,,2013-06-20 15:01:00,
2013-06-20 08:11:00,53.0,51.0,-100.00,West,280,0.0,2.0,92,0.00,,,0.00,18.000000,,2013-06-20 15:11:00,
2013-06-20 08:22:00,53.0,51.0,-100.00,West,280,0.0,2.0,92,0.00,,,0.00,18.000000,,2013-06-20 15:22:00,
2013-06-20 08:53:00,52.0,51.0,-100.00,SW,214,0.0,4.0,96,0.01,,,0.01,32.000000,,2013-06-20 15:53:00,
2013-06-20 09:01:00,52.0,51.0,-100.00,SW,214,0.0,4.0,96,0.01,,,0.01,32.000000,,2013-06-20 16:01:00,
2013-06-20 09:11:00,52.0,51.0,-100.00,SW,214,0.0,4.0,96,0.01,,,0.01,32.000000,,2013-06-20 16:11:00,
2013-06-20 09:22:00,52.0,51.0,-100.00,SW,214,0.0,4.0,96,0.01,,,0.01,32.000000,,2013-06-20 16:22:00,
2013-06-20 09:32:00,52.0,51.0,-100.00,SW,214,0.0,4.0,96,0.01,,,0.01,32.000000,,2013-06-20 16:32:00,
2013-06-20 09:52:00,53.0,52.0,-100.00,West,265,3.0,6.0,95,0.02,,,0.03,70.000000,,2013-06-20 16:52:00,
2013-06-20 10:01:00,53.0,52.0,-100.00,West,265,3.0,6.0,95,0.02,,,0.03,70.000000,,2013-06-20 17:01:00,
2013-06-20 10:11:00,53.0,52.0,-100.00,West,265,3.0,6.0,95,0.02,,,0.03,70.000000,,2013-06-20 17:11:00,
2013-06-20 10:21:00,53.0,52.0,-100.00,West,265,3.0,6.0,95,0.02,,,0.03,70.000000,,2013-06-20 17:21:00,
2013-06-20 10:32:00,53.0,52.0,-100.00,West,265,3.0,6.0,95,0.02,,,0.03,70.000000,,2013-06-20 17:32:00,
2013-06-20 10:33:00,54.0,52.0,-100.00,West,281,2.0,5.0,94,0.02,,,0.05,157.000000,,2013-06-20 17:33:00,
2013-06-20 10:53:00,54.0,52.0,-100.00,West,281,2.0,5.0,94,0.02,,,0.05,157.000000,,2013-06-20 17:53:00,
2013-06-20 11:01:00,54.0,52.0,-100.00,West,281,2.0,5.0,94,0.02,,,0.05,157.000000,,2013-06-20 18:01:00,
2013-06-20 11:11:00,54.0,52.0,-100.00,West,281,2.0,5.0,94,0.02,,,0.05,157.000000,,2013-06-20 18:11:00,
2013-06-20 11:22:00,54.0,52.0,-100.00,West,281,2.0,5.0,94,0.02,,,0.05,157.000000,,2013-06-20 18:22:00,
2013-06-20 11:33:00,54.0,52.0,-100.00,West,261,4.0,10.0,93,0.01,,,0.06,215.000000,,2013-06-20 18:33:00,
2013-06-20 11:53:00,54.0,52.0,-100.00,West,261,4.0,10.0,93,0.01,,,0.06,215.000000,,2013-06-20 18:53:00,
2013-06-20 12:01:00,54.0,52.0,-100.00,West,261,4.0,10.0,93,0.01,,,0.06,215.000000,,2013-06-20 19:01:00,
2013-06-20 12:11:00,54.0,52.0,-100.00,West,261,4.0,10.0,93,0.01,,,0.06,215.000000,,2013-06-20 19:11:00,
2013-06-20 12:22:00,54.0,52.0,-100.00,West,261,4.0,10.0,93,0.01,,,0.06,215.000000,,2013-06-20 19:22:00,
2013-06-20 12:33:00,54.0,52.0,-100.00,WSW,256,2.0,8.0,94,0.02,,,0.08,174.000000,,2013-06-20 19:33:00,
2013-06-20 12:52:00,54.0,52.0,-100.00,WSW,256,2.0,8.0,94,0.02,,,0.08,174.000000,,2013-06-20 19:52:00,
2013-06-20 13:02:00,54.0,52.0,-100.00,WSW,256,2.0,8.0,94,0.02,,,0.08,174.000000,,2013-06-20 20:02:00,
2013-06-20 13:11:00,54.0,52.0,-100.00,WSW,256,2.0,8.0,94,0.02,,,0.08,174.000000,,2013-06-20 20:11:00,
2013-06-20 13:22:00,54.0,52.0,-100.00,WSW,256,2.0,8.0,94,0.02,,,0.08,174.000000,,2013-06-20 20:22:00,
2013-06-20 13:52:00,55.0,53.0,-100.00,West,259,3.0,9.0,93,0.03,,,0.11,198.000000,,2013-06-20 20:52:00,
2013-06-20 14:01:00,55.0,53.0,-100.00,West,259,3.0,9.0,93,0.03,,,0.11,198.000000,,2013-06-20 21:01:00,
2013-06-20 14:11:00,55.0,53.0,-100.00,West,259,3.0,9.0,93,0.03,,,0.11,198.000000,,2013-06-20 21:11:00,
2013-06-20 17:11:00,54.0,52.0,-100.00,West,270,4.0,13.0,94,0.03,,,0.17,159.000000,,2013-06-21 00:11:00,